Time;durP1;ratioP1;P1;durP2;ratioP2;P2;SDS_P1;SDS_P2;PMS_P1;PMS_P2;Temp;Humidity;BMP_temperature;BMP_pressure;BME280_temperature;BME280_humidity;BME280_pressure;Samples;Min_cycle;Max_cycle;Signal;HPM_P1;HPM_P2
2020/12/16 00:00:36;;;;;;;30.33;20.10;;;6.50;99.90;;;;;;5055048;28;20427;-74
2020/12/16 00:03:02;;;;;;;29.65;19.60;;;6.50;99.90;;;;;;5055543;28;20385;-74
2020/12/16 00:05:27;;;;;;;30.35;18.70;;;6.50;99.90;;;;;;5054904;28;20801;-74
2020/12/16 00:07:53;;;;;;;29.73;17.92;;;6.50;99.90;;;;;;5054893;28;20387;-74
2020/12/16 00:10:18;;;;;;;26.23;18.33;;;6.50;99.90;;;;;;5054531;28;20389;-74
2020/12/16 00:12:44;;;;;;;32.80;20.90;;;6.40;99.90;;;;;;5054232;28;20412;-74
2020/12/16 00:15:10;;;;;;;29.85;18.50;;;6.40;99.90;;;;;;5054140;28;20382;-74
2020/12/16 00:17:36;;;;;;;31.73;19.13;;;6.30;99.90;;;;;;5053828;28;20385;-74
2020/12/16 00:20:04;;;;;;;27.40;19.17;;;6.50;99.90;;;;;;5054245;28;20389;-74
2020/12/16 00:22:40;;;;;;;29.35;18.77;;;6.40;99.90;;;;;;5053714;28;20484;-73
2020/12/16 00:25:08;;;;;;;29.05;19.48;;;6.40;99.90;;;;;;5035696;28;20745;-74
2020/12/16 00:27:34;;;;;;;29.05;19.10;;;6.40;99.90;;;;;;5053291;28;20871;-74
2020/12/16 00:30:00;;;;;;;28.83;19.65;;;6.40;99.90;;;;;;5053939;28;20385;-72
2020/12/16 00:32:25;;;;;;;29.88;20.25;;;6.50;99.90;;;;;;5053328;28;20486;-73
2020/12/16 00:34:51;;;;;;;31.20;19.90;;;6.60;99.90;;;;;;5053368;28;20381;-74
2020/12/16 00:37:17;;;;;;;30.27;18.50;;;6.80;99.90;;;;;;5054959;28;20530;-75
2020/12/16 00:39:42;;;;;;;30.80;19.00;;;6.90;99.90;;;;;;5054611;28;20421;-73
2020/12/16 00:42:08;;;;;;;26.97;18.70;;;7.10;99.90;;;;;;5054469;28;20397;-73
2020/12/16 00:44:34;;;;;;;25.07;17.80;;;7.30;99.90;;;;;;5053899;28;20405;-74
2020/12/16 00:47:00;;;;;;;28.42;18.50;;;7.40;99.90;;;;;;5036290;28;20403;-73
2020/12/16 00:49:26;;;;;;;25.70;17.92;;;7.50;99.90;;;;;;5054256;28;20377;-74
2020/12/16 00:51:52;;;;;;;23.42;16.73;;;7.60;99.90;;;;;;5054383;28;20465;-74
2020/12/16 00:54:17;;;;;;;23.10;16.42;;;7.60;99.90;;;;;;5053990;28;20390;-74
2020/12/16 00:56:43;;;;;;;23.57;15.90;;;7.80;99.90;;;;;;5054214;28;20716;-74
2020/12/16 00:59:09;;;;;;;24.03;16.07;;;7.80;99.90;;;;;;5053777;28;20791;-74
2020/12/16 01:01:34;;;;;;;19.57;15.73;;;7.90;99.90;;;;;;5054205;28;20389;-75
2020/12/16 01:04:00;;;;;;;21.70;16.40;;;7.90;99.90;;;;;;5053960;28;20477;-74
2020/12/16 01:06:25;;;;;;;23.65;16.10;;;7.90;99.90;;;;;;5054418;28;20382;-74
2020/12/16 01:08:51;;;;;;;24.15;17.17;;;8.00;99.90;;;;;;5053610;28;20448;-74
2020/12/16 01:11:17;;;;;;;22.27;15.77;;;8.00;99.90;;;;;;5053697;28;20396;-73
2020/12/16 01:13:42;;;;;;;24.83;17.33;;;8.10;99.90;;;;;;5035582;28;20751;-73
2020/12/16 01:16:08;;;;;;;22.52;15.43;;;8.10;99.90;;;;;;5053446;28;20381;-74
2020/12/16 01:18:33;;;;;;;23.27;16.10;;;8.20;99.90;;;;;;5053299;28;20377;-75
2020/12/16 01:20:59;;;;;;;21.20;14.97;;;8.30;99.90;;;;;;5054638;28;20750;-74
2020/12/16 01:23:25;;;;;;;21.00;16.27;;;8.30;99.90;;;;;;5053548;28;20742;-74
2020/12/16 01:25:50;;;;;;;22.20;15.60;;;8.30;99.90;;;;;;5053846;28;20417;-73
2020/12/16 01:28:16;;;;;;;21.13;15.10;;;8.40;99.90;;;;;;5053893;28;20740;-74
2020/12/16 01:30:41;;;;;;;20.13;15.73;;;8.40;99.90;;;;;;5054153;28;20389;-74
2020/12/16 01:33:07;;;;;;;22.25;15.75;;;8.40;99.90;;;;;;5054504;28;20739;-74
2020/12/16 01:35:32;;;;;;;22.73;15.60;;;8.40;99.90;;;;;;5054444;28;20404;-74
2020/12/16 01:37:58;;;;;;;22.25;14.73;;;8.40;99.90;;;;;;5054244;28;20731;-73
2020/12/16 01:40:24;;;;;;;21.63;15.52;;;8.40;99.90;;;;;;5054662;28;20810;-74
2020/12/16 01:42:49;;;;;;;22.10;16.30;;;8.40;99.90;;;;;;5055238;28;20472;-75
2020/12/16 01:45:19;;;;;;;20.17;15.63;;;8.40;99.90;;;;;;5037040;28;20424;-74
2020/12/16 01:47:44;;;;;;;22.75;16.40;;;8.40;99.90;;;;;;5054794;28;20527;-74
2020/12/16 01:50:11;;;;;;;23.67;16.52;;;8.50;99.90;;;;;;5055214;28;20424;-74
2020/12/16 01:52:38;;;;;;;22.00;16.55;;;8.50;99.90;;;;;;5054975;28;20401;-74
2020/12/16 01:55:07;;;;;;;19.73;15.25;;;8.50;99.90;;;;;;5055107;28;20515;-74
2020/12/16 01:57:37;;;;;;;19.35;15.88;;;8.50;99.90;;;;;;5055229;28;20385;-73
2020/12/16 02:00:07;;;;;;;22.55;15.10;;;8.50;99.90;;;;;;5055604;28;20388;-73
2020/12/16 02:02:38;;;;;;;21.40;15.88;;;8.50;99.90;;;;;;5055199;28;20381;-73
2020/12/16 02:05:04;;;;;;;19.48;15.20;;;8.50;99.90;;;;;;5055808;28;20456;-73
2020/12/16 02:07:31;;;;;;;23.92;15.35;;;8.50;99.90;;;;;;5054470;28;20455;-73
2020/12/16 02:09:57;;;;;;;20.75;15.32;;;8.50;99.90;;;;;;5055095;28;20419;-73
2020/12/16 02:12:33;;;;;;;19.93;15.53;;;8.50;99.90;;;;;;5055539;28;20409;-73
2020/12/16 02:14:59;;;;;;;25.25;15.20;;;8.60;99.90;;;;;;5055771;28;20744;-73
2020/12/16 02:17:25;;;;;;;19.80;14.30;;;8.60;99.90;;;;;;5055883;28;20473;-73
2020/12/16 02:19:59;;;;;;;19.58;15.18;;;8.60;99.90;;;;;;5055707;28;20401;-74
2020/12/16 02:22:25;;;;;;;21.08;14.50;;;8.50;99.90;;;;;;5053591;28;20412;-74
2020/12/16 02:25:11;;;;;;;17.80;14.40;;;8.50;99.90;;;;;;5053571;28;20382;-74
2020/12/16 02:27:37;;;;;;;21.23;13.52;;;8.50;99.90;;;;;;5053609;28;20389;-73
2020/12/16 02:30:05;;;;;;;19.30;14.50;;;8.50;99.90;;;;;;5054062;28;20393;-74
2020/12/16 02:32:30;;;;;;;22.02;14.27;;;8.50;99.90;;;;;;5054216;28;20417;-74
2020/12/16 02:34:57;;;;;;;18.87;14.60;;;8.30;99.90;;;;;;5054722;28;20904;-74
2020/12/16 02:37:23;;;;;;;20.77;14.48;;;8.30;99.90;;;;;;5053442;28;20401;-73
2020/12/16 02:39:49;;;;;;;19.63;14.35;;;8.10;99.90;;;;;;5053200;28;20396;-73
2020/12/16 02:42:22;;;;;;;24.27;15.63;;;8.00;99.90;;;;;;5035553;28;20767;-74
2020/12/16 02:44:48;;;;;;;23.15;15.85;;;8.00;99.90;;;;;;5053268;28;20451;-75
2020/12/16 02:47:14;;;;;;;25.27;17.70;;;7.90;99.90;;;;;;5052839;28;20377;-74
2020/12/16 02:49:39;;;;;;;24.40;16.40;;;7.80;99.90;;;;;;5052856;28;20424;-75
2020/12/16 02:52:05;;;;;;;24.70;17.50;;;7.70;99.90;;;;;;5053917;28;20428;-73
2020/12/16 02:54:30;;;;;;;22.30;16.53;;;7.60;99.90;;;;;;5053494;28;20416;-74
2020/12/16 02:56:56;;;;;;;25.50;17.57;;;7.60;99.90;;;;;;5052017;28;20382;-73
2020/12/16 02:59:24;;;;;;;24.10;17.87;;;7.50;99.90;;;;;;5050362;28;20386;-74
2020/12/16 03:01:51;;;;;;;25.15;17.48;;;7.40;99.90;;;;;;5050556;28;20390;-73
2020/12/16 03:04:17;;;;;;;23.80;16.67;;;7.40;99.90;;;;;;5050321;28;20424;-74
2020/12/16 03:06:46;;;;;;;24.98;17.42;;;7.40;99.90;;;;;;5050228;28;21005;-74
2020/12/16 03:09:13;;;;;;;25.60;18.00;;;7.30;99.90;;;;;;5050424;28;20393;-73
2020/12/16 03:11:39;;;;;;;24.60;17.00;;;7.30;99.90;;;;;;5051727;28;20385;-73
2020/12/16 03:14:04;;;;;;;26.77;17.70;;;7.20;99.90;;;;;;5052916;28;20922;-73
2020/12/16 03:16:30;;;;;;;25.20;17.13;;;7.20;99.90;;;;;;5052803;28;20393;-74
2020/12/16 03:18:55;;;;;;;22.38;16.45;;;7.20;99.90;;;;;;5053268;28;20394;-73
2020/12/16 03:21:23;;;;;;;27.13;18.42;;;7.20;99.90;;;;;;5056344;28;20407;-73
2020/12/16 03:23:49;;;;;;;27.80;18.77;;;7.00;99.90;;;;;;5058490;28;20412;-74
2020/12/16 03:26:15;;;;;;;23.65;17.10;;;7.00;99.90;;;;;;5040747;28;20385;-74
2020/12/16 03:28:40;;;;;;;29.37;18.50;;;7.00;99.90;;;;;;5059276;28;20397;-74
2020/12/16 03:31:06;;;;;;;25.47;17.87;;;6.90;99.90;;;;;;5058390;28;20392;-73
2020/12/16 03:33:31;;;;;;;28.10;18.07;;;6.90;99.90;;;;;;5039592;28;20408;-73
2020/12/16 03:35:57;;;;;;;25.07;18.40;;;6.90;99.90;;;;;;5057949;28;20401;-74
2020/12/16 03:38:22;;;;;;;24.90;18.03;;;6.90;99.90;;;;;;5057507;28;20385;-75
2020/12/16 03:40:48;;;;;;;27.17;17.77;;;6.90;99.90;;;;;;5056765;28;20420;-74
2020/12/16 03:43:13;;;;;;;24.70;18.00;;;6.90;99.90;;;;;;5053729;28;20439;-76
2020/12/16 03:45:39;;;;;;;35.33;20.63;;;6.80;99.90;;;;;;5053868;28;20469;-73
2020/12/16 03:48:04;;;;;;;27.27;19.13;;;6.80;99.90;;;;;;5053696;28;20399;-74
2020/12/16 03:50:30;;;;;;;28.00;18.97;;;6.80;99.90;;;;;;5053752;28;20843;-74
2020/12/16 03:52:55;;;;;;;29.53;19.73;;;6.90;99.90;;;;;;5053708;28;20427;-73
2020/12/16 03:55:21;;;;;;;31.03;18.73;;;6.90;99.90;;;;;;5035890;28;20438;-74
2020/12/16 03:57:47;;;;;;;28.57;18.40;;;6.90;99.90;;;;;;5035637;28;20389;-73
2020/12/16 04:00:12;;;;;;;27.60;18.90;;;6.80;99.90;;;;;;5053829;28;20389;-74
2020/12/16 04:02:38;;;;;;;29.47;19.03;;;6.70;99.90;;;;;;5053709;28;20570;-73
2020/12/16 04:05:05;;;;;;;24.97;17.20;;;6.70;99.90;;;;;;5053595;28;20377;-74
2020/12/16 04:07:30;;;;;;;25.52;16.08;;;6.70;99.90;;;;;;5053256;28;20385;-73
2020/12/16 04:09:57;;;;;;;26.75;16.85;;;6.60;99.90;;;;;;5053524;28;20384;-73
2020/12/16 04:12:23;;;;;;;24.35;15.82;;;6.60;99.90;;;;;;5053393;28;20407;-73
2020/12/16 04:14:48;;;;;;;25.03;15.37;;;6.60;99.90;;;;;;5053441;28;20416;-73
2020/12/16 04:17:14;;;;;;;22.77;15.53;;;6.60;99.90;;;;;;5035278;28;20393;-72
2020/12/16 04:19:41;;;;;;;25.60;17.00;;;6.50;99.90;;;;;;5053115;28;20392;-74
2020/12/16 04:22:06;;;;;;;25.58;16.55;;;6.50;99.90;;;;;;5053193;28;20470;-72
2020/12/16 04:24:31;;;;;;;24.93;16.67;;;6.50;99.90;;;;;;5053079;28;20428;-71
2020/12/16 04:26:57;;;;;;;24.50;16.67;;;6.40;99.90;;;;;;5052939;28;20942;-73
2020/12/16 04:29:23;;;;;;;27.00;17.90;;;6.40;99.90;;;;;;5052975;28;20886;-71
2020/12/16 04:31:50;;;;;;;26.83;17.93;;;6.60;99.90;;;;;;5052604;28;20443;-72
2020/12/16 04:34:16;;;;;;;24.70;17.58;;;6.70;99.90;;;;;;5052969;28;20384;-72
2020/12/16 04:36:49;;;;;;;26.92;18.02;;;6.70;99.90;;;;;;5052772;28;20461;-72
2020/12/16 04:39:16;;;;;;;27.05;17.60;;;6.70;99.90;;;;;;5052535;28;20395;-72
2020/12/16 04:41:42;;;;;;;29.17;18.85;;;6.60;99.90;;;;;;5052819;28;20862;-73
2020/12/16 04:44:11;;;;;;;28.33;18.20;;;6.60;99.90;;;;;;5052569;28;20420;-72
2020/12/16 04:46:41;;;;;;;31.00;19.88;;;6.50;99.90;;;;;;5053001;28;20384;-72
2020/12/16 04:49:08;;;;;;;30.83;18.60;;;6.50;99.90;;;;;;5052384;28;20379;-72
2020/12/16 04:51:39;;;;;;;26.13;17.95;;;6.50;99.90;;;;;;5052685;28;20780;-73
2020/12/16 04:54:05;;;;;;;31.27;18.60;;;6.40;99.90;;;;;;5052415;28;20402;-72
2020/12/16 04:56:33;;;;;;;28.77;18.38;;;6.30;99.90;;;;;;5034649;28;20390;-72
2020/12/16 04:58:59;;;;;;;27.88;19.05;;;6.30;99.90;;;;;;5052254;28;20388;-71
2020/12/16 05:01:24;;;;;;;32.50;18.40;;;6.30;99.90;;;;;;5052336;28;20374;-71
2020/12/16 05:03:50;;;;;;;29.27;18.00;;;6.30;99.90;;;;;;5052447;28;20392;-72
2020/12/16 05:06:42;;;;;;;30.67;19.30;;;6.30;99.90;;;;;;5052352;28;20872;-72
2020/12/16 05:09:13;;;;;;;30.45;19.70;;;6.30;99.90;;;;;;5052128;28;20388;-72
2020/12/16 05:11:47;;;;;;;31.20;18.90;;;6.30;99.90;;;;;;5052181;28;20468;-72
2020/12/16 05:14:21;;;;;;;28.87;18.33;;;6.20;99.90;;;;;;5034223;28;20428;-72
2020/12/16 05:17:02;;;;;;;30.15;17.30;;;6.20;99.90;;;;;;5034191;28;20453;-72
2020/12/16 05:19:48;;;;;;;28.05;17.50;;;6.20;99.90;;;;;;5051998;28;20372;-72
2020/12/16 05:22:16;;;;;;;32.28;18.70;;;6.10;99.90;;;;;;5050349;28;20388;-71
2020/12/16 05:24:42;;;;;;;31.10;19.40;;;6.10;99.90;;;;;;5051928;28;20381;-72
2020/12/16 05:27:08;;;;;;;29.67;19.83;;;6.10;99.90;;;;;;5051438;28;20385;-71
2020/12/16 05:29:35;;;;;;;34.17;19.83;;;6.10;99.90;;;;;;5052134;28;20428;-71
2020/12/16 05:32:14;;;;;;;30.13;19.15;;;6.10;99.90;;;;;;5054951;28;20384;-72
2020/12/16 05:34:40;;;;;;;30.25;19.15;;;6.20;99.90;;;;;;5036664;28;20416;-70
2020/12/16 05:37:38;;;;;;;27.17;17.90;;;6.40;99.90;;;;;;5054040;28;20439;-72
2020/12/16 05:40:10;;;;;;;25.88;16.73;;;6.30;99.90;;;;;;5052291;28;20424;-71
2020/12/16 05:42:36;;;;;;;28.33;16.80;;;6.30;99.90;;;;;;5051197;28;20901;-70
2020/12/16 05:45:13;;;;;;;28.13;17.20;;;6.20;99.90;;;;;;5050672;28;20429;-71
2020/12/16 05:47:41;;;;;;;29.08;17.70;;;6.10;99.90;;;;;;5050932;28;20807;-71
2020/12/16 05:50:17;;;;;;;29.45;18.35;;;6.10;99.90;;;;;;5051490;28;20431;-71
2020/12/16 05:52:44;;;;;;;27.85;18.30;;;6.00;99.90;;;;;;5051308;28;20409;-73
2020/12/16 05:55:10;;;;;;;30.00;18.25;;;6.00;99.90;;;;;;5051269;28;20439;-71
2020/12/16 05:57:36;;;;;;;30.88;18.02;;;6.00;99.90;;;;;;5051336;28;20866;-72
2020/12/16 06:00:06;;;;;;;29.90;18.10;;;5.90;99.90;;;;;;5053599;28;20385;-72
2020/12/16 06:02:54;;;;;;;30.48;18.90;;;5.90;99.90;;;;;;5054039;28;20427;-71
2020/12/16 06:05:20;;;;;;;31.85;19.35;;;6.00;99.90;;;;;;5051323;28;20390;-72
2020/12/16 06:07:47;;;;;;;32.42;19.00;;;6.10;99.90;;;;;;5050042;28;20728;-72
2020/12/16 06:10:14;;;;;;;32.83;20.50;;;6.20;99.90;;;;;;5033376;28;20382;-72
2020/12/16 06:12:41;;;;;;;31.15;19.33;;;6.30;99.90;;;;;;5050669;28;20412;-72
2020/12/16 06:15:12;;;;;;;30.40;19.17;;;6.30;99.90;;;;;;5050921;28;20392;-73
2020/12/16 06:17:42;;;;;;;33.38;20.05;;;6.30;99.90;;;;;;5050778;28;20804;-72
2020/12/16 06:20:11;;;;;;;29.95;18.90;;;6.50;99.90;;;;;;5050667;28;20463;-73
2020/12/16 06:22:36;;;;;;;26.75;16.55;;;6.60;99.90;;;;;;5050612;28;20384;-72
2020/12/16 06:25:05;;;;;;;25.97;17.40;;;6.40;99.90;;;;;;5050558;28;20870;-72
2020/12/16 06:27:44;;;;;;;31.55;18.55;;;6.20;99.90;;;;;;5049882;28;20470;-71
2020/12/16 06:30:26;;;;;;;28.60;17.77;;;6.00;99.90;;;;;;5050647;28;20380;-72
2020/12/16 06:33:11;;;;;;;30.88;19.15;;;6.00;99.90;;;;;;5050265;28;20494;-72
2020/12/16 06:35:39;;;;;;;29.77;17.40;;;5.90;99.90;;;;;;5050467;28;20381;-72
2020/12/16 06:38:24;;;;;;;31.50;17.30;;;5.90;99.90;;;;;;5049991;28;20381;-71
2020/12/16 06:40:50;;;;;;;28.30;17.40;;;5.90;99.90;;;;;;5050240;28;20384;-71
2020/12/16 06:43:30;;;;;;;32.30;18.90;;;6.00;99.90;;;;;;5049790;28;20815;-72
2020/12/16 06:45:57;;;;;;;31.33;18.35;;;6.20;99.90;;;;;;5050399;28;20379;-71
2020/12/16 06:48:39;;;;;;;34.65;19.15;;;6.00;99.90;;;;;;5049524;28;20393;-72
2020/12/16 06:51:19;;;;;;;33.65;19.25;;;6.00;99.90;;;;;;5050441;28;20821;-72
2020/12/16 06:53:45;;;;;;;33.77;20.40;;;5.90;99.90;;;;;;5049989;28;20409;-71
2020/12/16 06:56:11;;;;;;;36.45;20.38;;;6.00;99.90;;;;;;5050190;28;20385;-71
2020/12/16 06:58:38;;;;;;;36.30;20.63;;;6.00;99.90;;;;;;5032048;28;20389;-73
2020/12/16 07:01:13;;;;;;;36.42;20.35;;;6.00;99.90;;;;;;5050187;28;20747;-72
2020/12/16 07:03:39;;;;;;;35.97;19.92;;;6.00;99.90;;;;;;5049920;28;20468;-72
2020/12/16 07:06:10;;;;;;;36.58;19.27;;;6.00;99.90;;;;;;5050011;28;20472;-71
2020/12/16 07:08:35;;;;;;;34.22;19.05;;;6.10;99.90;;;;;;5049732;28;20386;-72
2020/12/16 07:11:01;;;;;;;35.27;19.53;;;6.10;99.90;;;;;;5050079;28;20390;-71
2020/12/16 07:13:33;;;;;;;35.70;20.05;;;6.20;99.90;;;;;;5049838;28;20397;-73
2020/12/16 07:16:13;;;;;;;36.25;19.70;;;6.30;99.90;;;;;;5049956;28;20749;-73
2020/12/16 07:18:39;;;;;;;36.75;20.42;;;6.60;99.90;;;;;;5031493;28;20427;-73
2020/12/16 07:21:07;;;;;;;34.83;19.98;;;6.70;99.90;;;;;;5049919;28;20405;-72
2020/12/16 07:23:57;;;;;;;38.53;20.65;;;6.80;99.90;;;;;;5050032;28;20383;-72
2020/12/16 07:26:28;;;;;;;36.05;20.23;;;6.80;99.90;;;;;;5049689;28;20391;-74
2020/12/16 07:28:55;;;;;;;34.13;19.92;;;6.80;99.90;;;;;;5049308;28;20896;-72
2020/12/16 07:31:21;;;;;;;30.35;18.38;;;6.70;99.90;;;;;;5049760;28;20388;-72
2020/12/16 07:33:47;;;;;;;31.50;18.30;;;6.70;99.90;;;;;;5049471;28;20738;-73
2020/12/16 07:36:16;;;;;;;28.98;18.63;;;6.70;99.90;;;;;;5049035;28;20905;-72
2020/12/16 07:38:54;;;;;;;33.88;19.15;;;6.70;99.90;;;;;;5049400;28;20412;-72
2020/12/16 07:41:30;;;;;;;34.50;19.30;;;6.70;99.90;;;;;;5049376;28;20453;-75
2020/12/16 07:43:58;;;;;;;36.70;20.30;;;6.70;99.90;;;;;;5029476;28;20400;-73
2020/12/16 07:46:24;;;;;;;33.15;19.30;;;6.70;99.90;;;;;;5029405;28;20387;-75
2020/12/16 07:48:50;;;;;;;33.65;20.15;;;6.70;99.90;;;;;;5028939;28;20453;-73
2020/12/16 07:51:18;;;;;;;37.83;21.17;;;6.70;99.90;;;;;;5028384;28;20924;-73
2020/12/16 07:53:49;;;;;;;34.30;20.50;;;6.70;99.90;;;;;;5029742;28;20407;-74
2020/12/16 07:56:16;;;;;;;36.20;20.17;;;6.70;99.90;;;;;;5029629;28;20474;-73
2020/12/16 07:58:43;;;;;;;34.42;20.38;;;6.70;99.90;;;;;;5029896;28;20445;-73
2020/12/16 08:01:13;;;;;;;38.33;21.33;;;6.70;99.90;;;;;;5030465;28;20392;-75
2020/12/16 08:03:40;;;;;;;35.50;21.20;;;6.70;99.90;;;;;;5034168;28;20421;-74
2020/12/16 08:06:07;;;;;;;37.70;21.27;;;6.70;99.90;;;;;;5047725;28;20401;-75
2020/12/16 08:08:45;;;;;;;40.15;21.20;;;6.70;99.90;;;;;;5063235;28;20386;-73
2020/12/16 08:11:21;;;;;;;36.50;20.45;;;6.70;99.90;;;;;;5063945;28;20401;-74
2020/12/16 08:13:48;;;;;;;34.60;20.02;;;6.70;99.90;;;;;;5063721;28;20405;-74
2020/12/16 08:16:15;;;;;;;37.00;20.80;;;6.80;99.90;;;;;;5063323;28;20409;-73
2020/12/16 08:18:45;;;;;;;36.15;21.13;;;6.80;99.90;;;;;;5061065;28;20749;-73
2020/12/16 08:21:16;;;;;;;35.88;20.85;;;6.80;99.90;;;;;;5060169;28;20493;-74
2020/12/16 08:23:41;;;;;;;38.13;21.57;;;6.80;99.90;;;;;;5061253;28;20512;-74
2020/12/16 08:26:08;;;;;;;36.15;21.30;;;6.80;99.90;;;;;;5061155;28;20446;-74
2020/12/16 08:28:34;;;;;;;36.03;21.75;;;6.90;99.90;;;;;;5059490;28;20409;-73
2020/12/16 08:31:03;;;;;;;40.17;21.60;;;6.90;99.90;;;;;;5061141;28;20412;-74
2020/12/16 08:33:30;;;;;;;41.38;22.20;;;6.90;99.90;;;;;;5053408;28;20408;-73
2020/12/16 08:36:01;;;;;;;38.25;20.40;;;6.90;99.90;;;;;;5046412;28;20401;-76
2020/12/16 08:38:39;;;;;;;31.45;21.15;;;7.00;99.90;;;;;;5051304;28;20568;-73
2020/12/16 08:41:07;;;;;;;33.78;20.42;;;7.00;99.90;;;;;;5055197;28;20395;-74
2020/12/16 08:43:39;;;;;;;35.27;21.20;;;7.10;99.90;;;;;;5053833;28;20909;-74
2020/12/16 08:46:23;;;;;;;34.70;20.87;;;7.10;99.90;;;;;;5054109;28;20450;-72
2020/12/16 08:48:57;;;;;;;31.60;20.10;;;7.10;99.90;;;;;;5051636;28;20389;-71
2020/12/16 08:51:30;;;;;;;33.50;20.40;;;7.20;99.90;;;;;;5051412;28;20385;-72
2020/12/16 08:54:10;;;;;;;31.95;20.75;;;7.40;99.90;;;;;;5049678;28;20507;-72
2020/12/16 08:56:42;;;;;;;33.22;21.35;;;7.40;99.90;;;;;;5042581;28;20377;-73
2020/12/16 08:59:23;;;;;;;33.05;20.45;;;7.40;99.90;;;;;;5051399;28;20499;-73
2020/12/16 09:02:02;;;;;;;31.17;19.33;;;7.50;99.90;;;;;;5051323;28;20490;-73
2020/12/16 09:04:34;;;;;;;29.20;18.27;;;7.60;99.90;;;;;;5050717;28;20485;-72
2020/12/16 09:07:11;;;;;;;31.13;19.17;;;7.60;99.90;;;;;;5048232;28;20858;-73
2020/12/16 09:09:51;;;;;;;27.65;18.45;;;7.50;99.90;;;;;;5050568;28;20781;-72
2020/12/16 09:12:18;;;;;;;28.10;18.35;;;7.50;99.90;;;;;;5051269;28;20409;-72
2020/12/16 09:14:52;;;;;;;28.17;17.80;;;7.50;99.90;;;;;;5051308;28;20396;-72
2020/12/16 09:17:18;;;;;;;27.60;18.77;;;7.60;99.90;;;;;;5051094;28;20452;-74
2020/12/16 09:19:43;;;;;;;28.83;18.02;;;7.80;99.90;;;;;;5050120;28;20398;-74
2020/12/16 09:22:09;;;;;;;28.50;18.30;;;7.80;99.90;;;;;;5043691;28;20393;-74
2020/12/16 09:24:35;;;;;;;25.38;17.17;;;8.00;99.90;;;;;;5050584;28;20464;-74
2020/12/16 09:27:08;;;;;;;27.23;17.63;;;8.00;99.90;;;;;;5050930;28;20381;-74
2020/12/16 09:29:34;;;;;;;27.15;17.92;;;8.00;99.90;;;;;;5049924;28;20394;-73
2020/12/16 09:32:09;;;;;;;26.25;18.58;;;8.10;99.90;;;;;;5050476;28;20401;-75
2020/12/16 09:34:55;;;;;;;26.98;17.48;;;8.20;99.90;;;;;;5033136;28;20463;-73
2020/12/16 09:37:36;;;;;;;28.50;17.20;;;8.30;99.90;;;;;;5050974;28;20949;-75
2020/12/16 09:40:15;;;;;;;25.40;17.27;;;8.40;99.90;;;;;;5040624;28;20387;-73
2020/12/16 09:42:56;;;;;;;25.05;16.42;;;8.50;99.90;;;;;;5051410;28;20436;-75
2020/12/16 09:45:22;;;;;;;24.33;16.10;;;8.50;99.90;;;;;;5050593;28;20504;-74
2020/12/16 09:47:49;;;;;;;24.33;15.93;;;8.50;99.90;;;;;;5049555;28;20476;-74
2020/12/16 09:50:16;;;;;;;23.95;15.40;;;8.40;99.90;;;;;;5051168;28;20393;-74
2020/12/16 09:52:42;;;;;;;25.05;16.63;;;8.40;99.90;;;;;;5050900;28;20440;-73
2020/12/16 09:55:15;;;;;;;20.95;15.38;;;8.30;99.90;;;;;;5050151;28;20432;-75
2020/12/16 09:57:42;;;;;;;21.88;15.77;;;8.30;99.70;;;;;;5032692;28;20712;-73
2020/12/16 10:00:08;;;;;;;24.70;15.88;;;8.30;99.30;;;;;;5050947;28;20382;-73
2020/12/16 10:02:33;;;;;;;23.80;16.30;;;8.40;99.60;;;;;;5050237;28;20857;-74
2020/12/16 10:04:59;;;;;;;22.10;16.02;;;8.40;99.90;;;;;;5049311;28;20398;-74
2020/12/16 10:07:24;;;;;;;21.48;16.05;;;8.40;99.90;;;;;;5051854;28;20462;-75
2020/12/16 10:09:54;;;;;;;23.00;15.15;;;8.40;99.90;;;;;;5053243;28;20878;-75
2020/12/16 10:12:21;;;;;;;25.48;14.85;;;8.40;99.90;;;;;;5051833;28;20492;-74
2020/12/16 10:14:47;;;;;;;22.23;15.57;;;8.40;99.90;;;;;;5048438;28;20390;-73
2020/12/16 10:17:13;;;;;;;22.23;15.15;;;8.40;99.90;;;;;;5046187;28;20446;-74
2020/12/16 10:19:42;;;;;;;22.67;15.60;;;8.50;99.90;;;;;;5052651;28;20394;-74
2020/12/16 10:22:08;;;;;;;23.03;15.73;;;8.60;99.90;;;;;;5034703;28;20569;-75
2020/12/16 10:24:33;;;;;;;24.17;14.77;;;8.70;99.90;;;;;;5040909;28;20406;-74
2020/12/16 10:27:01;;;;;;;22.60;15.27;;;8.80;99.90;;;;;;5052417;28;20488;-74
2020/12/16 10:29:27;;;;;;;23.58;14.57;;;9.00;99.90;;;;;;5053639;28;20868;-74
2020/12/16 10:31:53;;;;;;;20.03;15.07;;;9.20;99.90;;;;;;5050198;28;20462;-74
2020/12/16 10:34:19;;;;;;;21.03;14.57;;;9.40;99.90;;;;;;5049847;28;20420;-72
2020/12/16 10:36:50;;;;;;;20.83;14.15;;;9.50;99.90;;;;;;5049809;28;20900;-74
2020/12/16 10:39:16;;;;;;;18.75;13.88;;;9.60;98.20;;;;;;5031843;28;20397;-73
2020/12/16 10:41:43;;;;;;;21.30;13.60;;;9.70;98.20;;;;;;5049779;28;20393;-72
2020/12/16 10:44:09;;;;;;;15.98;12.07;;;9.80;95.40;;;;;;5049388;28;20477;-74
2020/12/16 10:46:34;;;;;;;17.15;13.00;;;10.00;95.00;;;;;;5050349;28;21080;-72
2020/12/16 10:49:00;;;;;;;18.70;13.10;;;10.10;93.80;;;;;;5047500;28;20401;-71
2020/12/16 10:51:27;;;;;;;15.90;12.30;;;10.10;92.90;;;;;;5049857;28;20385;-72
2020/12/16 10:53:53;;;;;;;20.00;13.13;;;10.20;90.80;;;;;;5059554;28;20598;-74
2020/12/16 10:56:18;;;;;;;16.45;11.93;;;10.20;92.00;;;;;;5052274;28;20949;-74
2020/12/16 10:58:44;;;;;;;19.40;12.80;;;10.20;88.80;;;;;;5049682;28;20378;-73
2020/12/16 11:01:09;;;;;;;14.43;11.47;;;10.20;92.30;;;;;;5049741;28;20397;-74
2020/12/16 11:03:35;;;;;;;15.40;11.97;;;10.20;91.80;;;;;;5048516;28;20400;-74
2020/12/16 11:06:00;;;;;;;17.97;11.80;;;10.30;92.00;;;;;;5044658;28;20407;-73
2020/12/16 11:08:26;;;;;;;18.03;12.13;;;10.40;91.40;;;;;;5034114;28;20404;-74
2020/12/16 11:10:52;;;;;;;17.03;11.70;;;10.50;91.30;;;;;;5031565;28;20431;-73
2020/12/16 11:13:18;;;;;;;15.48;11.77;;;10.50;89.00;;;;;;5049003;28;20506;-74
2020/12/16 11:15:46;;;;;;;13.97;11.40;;;10.60;89.60;;;;;;5049284;28;20397;-73
2020/12/16 11:18:12;;;;;;;14.52;11.90;;;10.60;87.90;;;;;;5049282;28;20401;-75
2020/12/16 11:20:37;;;;;;;14.13;10.97;;;10.60;86.70;;;;;;5047452;28;20393;-73
2020/12/16 11:23:03;;;;;;;13.83;10.93;;;10.70;84.50;;;;;;5044568;28;20389;-74
2020/12/16 11:25:28;;;;;;;14.75;11.02;;;10.70;84.70;;;;;;5049216;28;20496;-74
2020/12/16 11:27:54;;;;;;;14.82;11.30;;;10.80;82.50;;;;;;5048390;28;20405;-73
2020/12/16 11:30:20;;;;;;;14.20;11.15;;;10.70;85.50;;;;;;5049466;28;20385;-74
2020/12/16 11:32:45;;;;;;;13.27;10.55;;;10.80;86.60;;;;;;5049511;28;20401;-74
2020/12/16 11:35:11;;;;;;;13.45;11.02;;;10.90;83.80;;;;;;5048488;28;20704;-73
2020/12/16 11:37:39;;;;;;;14.13;10.90;;;11.10;84.40;;;;;;5049346;28;20447;-74
2020/12/16 11:40:05;;;;;;;15.95;11.27;;;11.20;81.40;;;;;;5048342;28;20389;-73
2020/12/16 11:42:31;;;;;;;12.25;10.10;;;11.50;79.10;;;;;;5048277;28;20504;-73
2020/12/16 11:44:57;;;;;;;12.13;10.63;;;11.70;75.80;;;;;;5033775;28;20937;-74
2020/12/16 11:47:22;;;;;;;12.35;10.20;;;11.90;75.60;;;;;;5052409;28;20424;-73
2020/12/16 11:49:48;;;;;;;13.65;10.93;;;12.00;77.20;;;;;;5052042;28;20409;-73
2020/12/16 11:52:14;;;;;;;13.80;10.38;;;12.00;75.10;;;;;;5056803;28;20385;-73
2020/12/16 11:54:39;;;;;;;16.15;10.80;;;12.00;71.40;;;;;;5058806;28;20683;-73
2020/12/16 11:57:05;;;;;;;13.33;11.00;;;12.00;72.10;;;;;;5056428;28;20425;-75
2020/12/16 11:59:31;;;;;;;15.88;10.98;;;11.90;71.80;;;;;;5057847;28;20397;-74
2020/12/16 12:01:58;;;;;;;14.53;10.30;;;11.90;71.60;;;;;;5058116;28;20393;-74
2020/12/16 12:04:23;;;;;;;11.90;10.10;;;11.80;72.80;;;;;;5052841;28;20948;-72
2020/12/16 12:06:50;;;;;;;12.77;9.73;;;11.80;72.80;;;;;;5052682;28;20393;-73
2020/12/16 12:09:15;;;;;;;12.23;9.57;;;11.80;72.80;;;;;;5053485;28;20389;-75
2020/12/16 12:11:41;;;;;;;12.27;9.40;;;11.80;72.20;;;;;;5052754;28;20394;-73
2020/12/16 12:14:06;;;;;;;12.77;10.30;;;11.80;73.40;;;;;;5053087;28;20413;-75
2020/12/16 12:16:32;;;;;;;12.90;10.70;;;11.90;72.70;;;;;;5053622;28;20377;-74
2020/12/16 12:18:57;;;;;;;11.75;9.90;;;11.80;73.70;;;;;;5052914;28;20400;-74
2020/12/16 12:21:23;;;;;;;11.50;8.85;;;11.90;72.50;;;;;;5052107;28;20455;-75
2020/12/16 12:23:48;;;;;;;10.43;8.90;;;12.00;71.00;;;;;;5052198;28;20399;-72
2020/12/16 12:26:14;;;;;;;13.43;9.00;;;12.00;71.10;;;;;;5051970;28;20451;-73
2020/12/16 12:28:40;;;;;;;9.95;8.60;;;11.90;71.00;;;;;;5052029;28;20416;-73
2020/12/16 12:31:05;;;;;;;11.30;8.90;;;11.90;72.20;;;;;;5052412;28;20389;-75
2020/12/16 12:33:31;;;;;;;10.30;8.70;;;12.00;72.00;;;;;;5051711;28;20777;-75
2020/12/16 12:35:59;;;;;;;9.10;8.20;;;12.00;72.70;;;;;;5052664;28;20473;-74
2020/12/16 12:38:25;;;;;;;9.10;7.60;;;12.00;72.70;;;;;;5051728;28;20389;-74
2020/12/16 12:40:51;;;;;;;8.80;7.90;;;12.10;71.80;;;;;;5051342;28;20751;-72